Terminal Aerodrome Forecast
Issued by NWS

Home | Current Version | Previous Version | Graphics & Text | Print | Product List | Glossary On
Versions: 1 2 3 4 5 6 7 8 9 10 11 12 13 14 15 16 17 18 19
000
FTUS43 KFGF 271537 AAB
TAFBJI
TAF AMD
KBJI 271537Z 2716/2812 35013KT P6SM BKN020
      TEMPO 2716/2718 5SM -SN
     FM272300 32010KT P6SM OVC035=

USA.gov is the U.S. government's official web portal to all federal, state and local government web resources and services.